sensor_id;sensor_type;location;lat;lon;timestamp;pressure;altitude;pressure_sealevel;temperature;humidity
67738;BME280;54534;43.612;1.572;2022-09-13T00:00:43;98629.47;;;25.34;54.73
67738;BME280;54534;43.612;1.572;2022-09-13T00:03:10;98626.75;;;25.34;54.56
67738;BME280;54534;43.612;1.572;2022-09-13T00:05:37;98624.91;;;25.35;54.65
67738;BME280;54534;43.612;1.572;2022-09-13T00:08:03;98616.00;;;25.34;54.36
67738;BME280;54534;43.612;1.572;2022-09-13T00:10:29;98614.16;;;25.35;54.38
67738;BME280;54534;43.612;1.572;2022-09-13T00:12:55;98610.63;;;25.34;54.33
67738;BME280;54534;43.612;1.572;2022-09-13T00:15:21;98607.94;;;25.34;54.46
67738;BME280;54534;43.612;1.572;2022-09-13T00:17:46;98605.25;;;25.34;54.17
67738;BME280;54534;43.612;1.572;2022-09-13T00:20:11;98602.34;;;25.36;54.18
67738;BME280;54534;43.612;1.572;2022-09-13T00:22:37;98590.75;;;25.35;54.23
67738;BME280;54534;43.612;1.572;2022-09-13T00:25:03;98589.94;;;25.35;54.45
67738;BME280;54534;43.612;1.572;2022-09-13T00:27:31;98574.59;;;25.35;54.57
67738;BME280;54534;43.612;1.572;2022-09-13T00:29:56;98571.91;;;25.35;54.19
67738;BME280;54534;43.612;1.572;2022-09-13T00:32:22;98566.53;;;25.35;54.29
67738;BME280;54534;43.612;1.572;2022-09-13T00:34:47;98560.34;;;25.35;54.31
67738;BME280;54534;43.612;1.572;2022-09-13T00:37:12;98561.16;;;25.35;54.15
67738;BME280;54534;43.612;1.572;2022-09-13T00:39:38;98545.00;;;25.35;54.56
67738;BME280;54534;43.612;1.572;2022-09-13T00:42:03;98541.31;;;25.36;54.36
67738;BME280;54534;43.612;1.572;2022-09-13T00:44:57;98533.22;;;25.36;54.64
67738;BME280;54534;43.612;1.572;2022-09-13T00:49:56;98545.00;;;25.35;54.23
67738;BME280;54534;43.612;1.572;2022-09-13T00:52:24;98533.59;;;25.33;54.58
67738;BME280;54534;43.612;1.572;2022-09-13T00:54:57;98544.19;;;25.35;54.65
67738;BME280;54534;43.612;1.572;2022-09-13T00:57:25;98545.19;;;25.33;54.27
67738;BME280;54534;43.612;1.572;2022-09-13T00:59:56;98545.00;;;25.35;54.44
67738;BME280;54534;43.612;1.572;2022-09-13T01:02:25;98529.69;;;25.36;54.18
67738;BME280;54534;43.612;1.572;2022-09-13T01:04:51;98528.84;;;25.35;54.04
67738;BME280;54534;43.612;1.572;2022-09-13T01:07:17;98538.81;;;25.35;54.54
67738;BME280;54534;43.612;1.572;2022-09-13T01:09:45;98528.84;;;25.35;54.26
67738;BME280;54534;43.612;1.572;2022-09-13T01:14:50;98540.47;;;25.36;54.14
67738;BME280;54534;43.612;1.572;2022-09-13T01:17:16;98544.19;;;25.35;54.42
67738;BME280;54534;43.612;1.572;2022-09-13T01:19:42;98539.63;;;25.35;54.40
67738;BME280;54534;43.612;1.572;2022-09-13T01:25:24;98552.06;;;25.36;54.28
67738;BME280;54534;43.612;1.572;2022-09-13T01:30:28;98548.53;;;25.36;54.24
67738;BME280;54534;43.612;1.572;2022-09-13T01:33:30;98537.78;;;25.36;54.31
67738;BME280;54534;43.612;1.572;2022-09-13T01:39:07;98527.22;;;25.34;54.08
67738;BME280;54534;43.612;1.572;2022-09-13T01:50:15;98517.28;;;25.35;54.59
67738;BME280;54534;43.612;1.572;2022-09-13T01:52:49;98517.28;;;25.35;54.33
67738;BME280;54534;43.612;1.572;2022-09-13T01:55:22;98505.69;;;25.34;54.25
67738;BME280;54534;43.612;1.572;2022-09-13T02:00:22;98503.00;;;25.34;54.67
67738;BME280;54534;43.612;1.572;2022-09-13T02:03:01;98497.63;;;25.34;54.59
67738;BME280;54534;43.612;1.572;2022-09-13T02:05:41;98478.78;;;25.34;54.29
67738;BME280;54534;43.612;1.572;2022-09-13T02:08:13;98466.97;;;25.35;54.65
67738;BME280;54534;43.612;1.572;2022-09-13T02:10:45;98458.91;;;25.35;54.49
67738;BME280;54534;43.612;1.572;2022-09-13T02:13:17;98466.97;;;25.35;54.29
67738;BME280;54534;43.612;1.572;2022-09-13T02:15:48;98466.16;;;25.35;54.75
67738;BME280;54534;43.612;1.572;2022-09-13T02:18:29;98456.22;;;25.35;54.71
67738;BME280;54534;43.612;1.572;2022-09-13T02:21:00;98450.03;;;25.35;54.52
67738;BME280;54534;43.612;1.572;2022-09-13T02:23:33;98440.25;;;25.33;54.70
67738;BME280;54534;43.612;1.572;2022-09-13T02:26:03;98434.69;;;25.35;54.83
67738;BME280;54534;43.612;1.572;2022-09-13T02:28:36;98417.72;;;25.35;54.73
67738;BME280;54534;43.612;1.572;2022-09-13T02:31:03;98415.84;;;25.35;54.62
67738;BME280;54534;43.612;1.572;2022-09-13T02:33:37;98410.66;;;25.33;54.93
67738;BME280;54534;43.612;1.572;2022-09-13T02:36:08;98409.66;;;25.35;54.84
67738;BME280;54534;43.612;1.572;2022-09-13T02:38:40;98408.81;;;25.34;54.72
67738;BME280;54534;43.612;1.572;2022-09-13T02:41:28;98406.13;;;25.34;54.85
67738;BME280;54534;43.612;1.572;2022-09-13T02:44:06;98413.34;;;25.33;54.86
67738;BME280;54534;43.612;1.572;2022-09-13T02:46:59;98414.19;;;25.34;54.53
67738;BME280;54534;43.612;1.572;2022-09-13T02:55:41;98415.22;;;25.33;54.50
67738;BME280;54534;43.612;1.572;2022-09-13T03:00:46;98414.38;;;25.32;54.88
67738;BME280;54534;43.612;1.572;2022-09-13T03:03:14;98403.59;;;25.32;54.72
67738;BME280;54534;43.612;1.572;2022-09-13T03:05:40;98400.09;;;25.32;54.45
67738;BME280;54534;43.612;1.572;2022-09-13T03:08:08;98398.22;;;25.32;54.64
67738;BME280;54534;43.612;1.572;2022-09-13T03:10:51;98397.22;;;25.33;54.36
67738;BME280;54534;43.612;1.572;2022-09-13T03:19:14;98411.69;;;25.32;54.65
67738;BME280;54534;43.612;1.572;2022-09-13T03:30:22;98409.41;;;25.29;54.89
67738;BME280;54534;43.612;1.572;2022-09-13T03:33:08;98411.88;;;25.31;54.38
67738;BME280;54534;43.612;1.572;2022-09-13T03:35:42;98407.50;;;25.30;54.42
67738;BME280;54534;43.612;1.572;2022-09-13T03:46:34;98385.97;;;25.30;54.73
67738;BME280;54534;43.612;1.572;2022-09-13T03:49:07;98387.03;;;25.29;54.37
67738;BME280;54534;43.612;1.572;2022-09-13T03:51:34;98380.59;;;25.30;54.34
67738;BME280;54534;43.612;1.572;2022-09-13T03:54:06;98380.59;;;25.30;54.30
67738;BME280;54534;43.612;1.572;2022-09-13T03:56:33;98381.44;;;25.30;54.72
67738;BME280;54534;43.612;1.572;2022-09-13T03:58:59;98377.09;;;25.29;54.46
67738;BME280;54534;43.612;1.572;2022-09-13T04:01:25;98382.47;;;25.29;54.33
67738;BME280;54534;43.612;1.572;2022-09-13T04:03:51;98374.22;;;25.31;54.33
67738;BME280;54534;43.612;1.572;2022-09-13T04:06:17;98372.53;;;25.30;54.64
67738;BME280;54534;43.612;1.572;2022-09-13T04:08:43;98362.81;;;25.29;54.35
67738;BME280;54534;43.612;1.572;2022-09-13T04:11:09;98365.50;;;25.29;54.40
67738;BME280;54534;43.612;1.572;2022-09-13T04:13:35;98372.75;;;25.28;54.33
67738;BME280;54534;43.612;1.572;2022-09-13T04:16:02;98374.41;;;25.29;54.41
67738;BME280;54534;43.612;1.572;2022-09-13T04:18:29;98366.34;;;25.29;54.06
67738;BME280;54534;43.612;1.572;2022-09-13T04:20:56;98370.88;;;25.29;54.42
67738;BME280;54534;43.612;1.572;2022-09-13T04:23:22;98363.66;;;25.29;54.76
67738;BME280;54534;43.612;1.572;2022-09-13T04:25:48;98359.09;;;25.30;54.73
67738;BME280;54534;43.612;1.572;2022-09-13T04:28:18;98361.78;;;25.30;54.67
67738;BME280;54534;43.612;1.572;2022-09-13T04:30:48;98368.19;;;25.29;54.81
67738;BME280;54534;43.612;1.572;2022-09-13T04:33:14;98365.50;;;25.29;54.82
67738;BME280;54534;43.612;1.572;2022-09-13T04:35:41;98371.06;;;25.27;54.44
67738;BME280;54534;43.612;1.572;2022-09-13T04:38:07;98368.19;;;25.29;54.41
67738;BME280;54534;43.612;1.572;2022-09-13T04:40:33;98372.53;;;25.30;54.50
67738;BME280;54534;43.612;1.572;2022-09-13T04:43:00;98370.88;;;25.29;54.50
67738;BME280;54534;43.612;1.572;2022-09-13T04:45:26;98376.06;;;25.30;54.63
67738;BME280;54534;43.612;1.572;2022-09-13T04:47:53;98375.22;;;25.30;54.42
67738;BME280;54534;43.612;1.572;2022-09-13T04:50:22;98372.53;;;25.30;54.53
67738;BME280;54534;43.612;1.572;2022-09-13T04:52:49;98368.19;;;25.29;54.58
67738;BME280;54534;43.612;1.572;2022-09-13T04:55:14;98364.47;;;25.30;54.87
67738;BME280;54534;43.612;1.572;2022-09-13T04:57:40;98363.66;;;25.29;55.03
67738;BME280;54534;43.612;1.572;2022-09-13T05:00:07;98370.69;;;25.30;54.93
67738;BME280;54534;43.612;1.572;2022-09-13T05:02:33;98356.41;;;25.30;55.23
67738;BME280;54534;43.612;1.572;2022-09-13T05:04:58;98364.47;;;25.30;55.38
67738;BME280;54534;43.612;1.572;2022-09-13T05:07:24;98366.13;;;25.31;55.38
67738;BME280;54534;43.612;1.572;2022-09-13T05:09:49;98368.00;;;25.30;55.31
67738;BME280;54534;43.612;1.572;2022-09-13T05:12:15;98364.28;;;25.31;55.25
67738;BME280;54534;43.612;1.572;2022-09-13T05:14:40;98356.41;;;25.30;55.57
67738;BME280;54534;43.612;1.572;2022-09-13T05:17:06;98365.13;;;25.32;56.06
67738;BME280;54534;43.612;1.572;2022-09-13T05:19:31;98367.81;;;25.32;55.58
67738;BME280;54534;43.612;1.572;2022-09-13T05:21:57;98366.97;;;25.31;55.54
67738;BME280;54534;43.612;1.572;2022-09-13T05:24:22;98372.16;;;25.33;55.70
67738;BME280;54534;43.612;1.572;2022-09-13T05:26:47;98362.44;;;25.32;55.69
67738;BME280;54534;43.612;1.572;2022-09-13T05:29:13;98372.38;;;25.31;56.08
67738;BME280;54534;43.612;1.572;2022-09-13T05:31:40;98374.00;;;25.32;56.22
67738;BME280;54534;43.612;1.572;2022-09-13T05:34:08;98374.00;;;25.32;55.82
67738;BME280;54534;43.612;1.572;2022-09-13T05:36:35;98374.84;;;25.33;55.64
67738;BME280;54534;43.612;1.572;2022-09-13T05:39:01;98368.63;;;25.32;56.22
67738;BME280;54534;43.612;1.572;2022-09-13T05:41:26;98376.69;;;25.32;56.08
67738;BME280;54534;43.612;1.572;2022-09-13T05:43:52;98379.22;;;25.34;56.28
67738;BME280;54534;43.612;1.572;2022-09-13T05:46:18;98373.84;;;25.34;56.73
67738;BME280;54534;43.612;1.572;2022-09-13T05:48:45;98368.47;;;25.34;56.55
67738;BME280;54534;43.612;1.572;2022-09-13T05:51:14;98364.72;;;25.35;56.64
67738;BME280;54534;43.612;1.572;2022-09-13T05:53:42;98368.25;;;25.36;56.44
67738;BME280;54534;43.612;1.572;2022-09-13T05:56:10;98383.56;;;25.35;56.99
67738;BME280;54534;43.612;1.572;2022-09-13T05:58:41;98372.81;;;25.35;56.62
67738;BME280;54534;43.612;1.572;2022-09-13T06:01:07;98368.25;;;25.36;56.62
67738;BME280;54534;43.612;1.572;2022-09-13T06:03:33;98368.09;;;25.37;56.39
67738;BME280;54534;43.612;1.572;2022-09-13T06:05:58;98376.16;;;25.37;56.36
67738;BME280;54534;43.612;1.572;2022-09-13T06:08:25;98364.56;;;25.37;56.35
67738;BME280;54534;43.612;1.572;2022-09-13T06:13:20;98355.66;;;25.36;56.26
67738;BME280;54534;43.612;1.572;2022-09-13T06:15:46;98364.56;;;25.37;56.33
67738;BME280;54534;43.612;1.572;2022-09-13T06:18:11;98357.31;;;25.37;56.02
67738;BME280;54534;43.612;1.572;2022-09-13T06:20:36;98356.47;;;25.37;56.61
67738;BME280;54534;43.612;1.572;2022-09-13T06:23:02;98350.91;;;25.38;56.17
67738;BME280;54534;43.612;1.572;2022-09-13T06:25:27;98349.25;;;25.37;56.16
67738;BME280;54534;43.612;1.572;2022-09-13T06:27:52;98354.63;;;25.37;56.34
67738;BME280;54534;43.612;1.572;2022-09-13T06:30:18;98345.72;;;25.37;56.08
67738;BME280;54534;43.612;1.572;2022-09-13T06:32:43;98350.06;;;25.38;56.32
67738;BME280;54534;43.612;1.572;2022-09-13T06:35:09;98351.94;;;25.37;56.29
67738;BME280;54534;43.612;1.572;2022-09-13T06:37:34;98347.38;;;25.38;56.25
67738;BME280;54534;43.612;1.572;2022-09-13T06:40:00;98328.94;;;25.35;56.13
67738;BME280;54534;43.612;1.572;2022-09-13T06:42:25;98337.19;;;25.33;55.82
67738;BME280;54534;43.612;1.572;2022-09-13T06:44:50;98344.88;;;25.36;56.00
67738;BME280;54534;43.612;1.572;2022-09-13T06:47:16;98336.81;;;25.36;55.72
67738;BME280;54534;43.612;1.572;2022-09-13T06:49:41;98326.88;;;25.37;55.98
67738;BME280;54534;43.612;1.572;2022-09-13T06:52:06;98339.50;;;25.36;55.55
67738;BME280;54534;43.612;1.572;2022-09-13T06:54:32;98338.50;;;25.37;55.67
67738;BME280;54534;43.612;1.572;2022-09-13T06:56:57;98338.50;;;25.37;55.80
67738;BME280;54534;43.612;1.572;2022-09-13T06:59:23;98330.41;;;25.37;56.05
67738;BME280;54534;43.612;1.572;2022-09-13T07:01:48;98333.28;;;25.36;55.83
67738;BME280;54534;43.612;1.572;2022-09-13T07:04:15;98322.34;;;25.37;55.72
67738;BME280;54534;43.612;1.572;2022-09-13T07:06:43;98322.34;;;25.37;55.67
67738;BME280;54534;43.612;1.572;2022-09-13T07:09:17;98313.44;;;25.37;55.85
67738;BME280;54534;43.612;1.572;2022-09-13T07:11:44;98308.91;;;25.37;56.02
67738;BME280;54534;43.612;1.572;2022-09-13T07:14:22;98308.91;;;25.37;55.57
67738;BME280;54534;43.612;1.572;2022-09-13T07:16:48;98310.75;;;25.37;55.79
67738;BME280;54534;43.612;1.572;2022-09-13T07:19:21;98301.00;;;25.36;55.61
67738;BME280;54534;43.612;1.572;2022-09-13T07:21:50;98317.97;;;25.36;55.81
67738;BME280;54534;43.612;1.572;2022-09-13T07:24:17;98318.81;;;25.37;55.55
67738;BME280;54534;43.612;1.572;2022-09-13T07:26:43;98310.75;;;25.37;55.53
67738;BME280;54534;43.612;1.572;2022-09-13T07:29:15;98318.81;;;25.37;55.50
67738;BME280;54534;43.612;1.572;2022-09-13T07:31:43;98334.97;;;25.37;55.93
67738;BME280;54534;43.612;1.572;2022-09-13T07:34:26;98348.41;;;25.37;55.51
67738;BME280;54534;43.612;1.572;2022-09-13T07:36:52;98345.72;;;25.37;55.65
67738;BME280;54534;43.612;1.572;2022-09-13T07:39:18;98337.66;;;25.37;55.62
67738;BME280;54534;43.612;1.572;2022-09-13T07:41:44;98330.59;;;25.36;56.02
67738;BME280;54534;43.612;1.572;2022-09-13T07:44:11;98326.03;;;25.36;55.64
67738;BME280;54534;43.612;1.572;2022-09-13T07:46:37;98330.59;;;25.36;55.92
67738;BME280;54534;43.612;1.572;2022-09-13T07:49:11;98321.69;;;25.35;55.65
67738;BME280;54534;43.612;1.572;2022-09-13T07:51:39;98312.81;;;25.35;55.81
67738;BME280;54534;43.612;1.572;2022-09-13T07:54:10;98316.28;;;25.35;56.00
67738;BME280;54534;43.612;1.572;2022-09-13T07:56:37;98314.66;;;25.34;55.72
67738;BME280;54534;43.612;1.572;2022-09-13T07:59:04;98307.41;;;25.35;55.79
67738;BME280;54534;43.612;1.572;2022-09-13T08:01:39;98313.59;;;25.35;55.69
67738;BME280;54534;43.612;1.572;2022-09-13T08:04:10;98317.34;;;25.34;55.63
67738;BME280;54534;43.612;1.572;2022-09-13T08:06:37;98328.94;;;25.35;55.60
67738;BME280;54534;43.612;1.572;2022-09-13T08:09:04;98323.72;;;25.33;55.88
67738;BME280;54534;43.612;1.572;2022-09-13T08:11:39;98329.94;;;25.33;55.56
67738;BME280;54534;43.612;1.572;2022-09-13T08:14:06;98318.34;;;25.33;55.78
67738;BME280;54534;43.612;1.572;2022-09-13T08:16:33;98318.34;;;25.33;55.47
67738;BME280;54534;43.612;1.572;2022-09-13T08:19:00;98317.34;;;25.34;55.77
67738;BME280;54534;43.612;1.572;2022-09-13T08:21:31;98320.03;;;25.34;55.43
67738;BME280;54534;43.612;1.572;2022-09-13T08:23:57;98314.66;;;25.34;55.33
67738;BME280;54534;43.612;1.572;2022-09-13T08:26:27;98328.09;;;25.34;55.33
67738;BME280;54534;43.612;1.572;2022-09-13T08:29:01;98332.84;;;25.32;55.64
67738;BME280;54534;43.612;1.572;2022-09-13T08:31:27;98337.19;;;25.33;55.88
67738;BME280;54534;43.612;1.572;2022-09-13T08:33:53;98337.19;;;25.33;55.40
67738;BME280;54534;43.612;1.572;2022-09-13T08:36:22;98336.34;;;25.32;55.64
67738;BME280;54534;43.612;1.572;2022-09-13T08:38:50;98342.56;;;25.33;55.63
67738;BME280;54534;43.612;1.572;2022-09-13T08:41:32;98343.59;;;25.32;55.38
67738;BME280;54534;43.612;1.572;2022-09-13T08:46:44;98350.63;;;25.33;55.41
67738;BME280;54534;43.612;1.572;2022-09-13T08:49:17;98350.63;;;25.33;55.34
67738;BME280;54534;43.612;1.572;2022-09-13T08:51:47;98353.31;;;25.33;55.33
67738;BME280;54534;43.612;1.572;2022-09-13T08:54:17;98360.56;;;25.32;55.51
67738;BME280;54534;43.612;1.572;2022-09-13T08:59:49;98364.09;;;25.33;55.54
67738;BME280;54534;43.612;1.572;2022-09-13T09:05:12;98379.41;;;25.32;55.77
67738;BME280;54534;43.612;1.572;2022-09-13T09:07:48;98376.69;;;25.32;55.56
67738;BME280;54534;43.612;1.572;2022-09-13T09:10:35;98368.84;;;25.31;55.38
67738;BME280;54534;43.612;1.572;2022-09-13T09:13:26;98365.31;;;25.30;55.22
67738;BME280;54534;43.612;1.572;2022-09-13T09:18:53;98360.75;;;25.31;55.70
67738;BME280;54534;43.612;1.572;2022-09-13T09:21:19;98363.44;;;25.31;55.43
67738;BME280;54534;43.612;1.572;2022-09-13T09:23:50;98369.47;;;25.33;55.56
67738;BME280;54534;43.612;1.572;2022-09-13T09:28:43;98358.06;;;25.31;55.48
67738;BME280;54534;43.612;1.572;2022-09-13T09:31:23;98355.19;;;25.32;55.53
67738;BME280;54534;43.612;1.572;2022-09-13T09:36:39;98352.69;;;25.31;55.50
67738;BME280;54534;43.612;1.572;2022-09-13T09:39:13;98357.06;;;25.32;55.09
67738;BME280;54534;43.612;1.572;2022-09-13T09:41:41;98357.06;;;25.32;55.43
67738;BME280;54534;43.612;1.572;2022-09-13T09:44:22;98368.63;;;25.32;55.23
67738;BME280;54534;43.612;1.572;2022-09-13T09:47:21;98373.19;;;25.32;55.45
67738;BME280;54534;43.612;1.572;2022-09-13T09:49:53;98373.19;;;25.32;55.67
67738;BME280;54534;43.612;1.572;2022-09-13T09:55:26;98367.81;;;25.32;55.49
67738;BME280;54534;43.612;1.572;2022-09-13T09:58:04;98364.47;;;25.30;55.32
67738;BME280;54534;43.612;1.572;2022-09-13T10:00:37;98358.06;;;25.31;55.55
67738;BME280;54534;43.612;1.572;2022-09-13T10:03:16;98365.94;;;25.32;55.46
67738;BME280;54534;43.612;1.572;2022-09-13T10:05:42;98364.28;;;25.31;55.34
67738;BME280;54534;43.612;1.572;2022-09-13T10:08:25;98366.34;;;25.29;55.29
67738;BME280;54534;43.612;1.572;2022-09-13T10:10:53;98367.81;;;25.32;55.42
67738;BME280;54534;43.612;1.572;2022-09-13T10:13:21;98374.84;;;25.33;55.06
67738;BME280;54534;43.612;1.572;2022-09-13T10:18:24;98358.72;;;25.33;55.14
67738;BME280;54534;43.612;1.572;2022-09-13T10:21:05;98363.09;;;25.34;55.27
67738;BME280;54534;43.612;1.572;2022-09-13T10:23:33;98356.84;;;25.33;55.26
67738;BME280;54534;43.612;1.572;2022-09-13T10:28:35;98346.09;;;25.33;55.06
67738;BME280;54534;43.612;1.572;2022-09-13T10:31:07;98341.56;;;25.34;55.26
67738;BME280;54534;43.612;1.572;2022-09-13T10:33:39;98341.56;;;25.34;55.25
67738;BME280;54534;43.612;1.572;2022-09-13T10:36:13;98345.09;;;25.35;55.49
67738;BME280;54534;43.612;1.572;2022-09-13T10:38:50;98347.78;;;25.35;55.28
67738;BME280;54534;43.612;1.572;2022-09-13T10:41:25;98348.59;;;25.35;55.35
67738;BME280;54534;43.612;1.572;2022-09-13T10:43:59;98343.22;;;25.35;55.47
67738;BME280;54534;43.612;1.572;2022-09-13T10:46:29;98335.97;;;25.36;55.37
67738;BME280;54534;43.612;1.572;2022-09-13T10:48:55;98326.25;;;25.35;55.13
67738;BME280;54534;43.612;1.572;2022-09-13T10:53:49;98323.34;;;25.36;55.65
67738;BME280;54534;43.612;1.572;2022-09-13T10:56:24;98320.66;;;25.36;55.35
67738;BME280;54534;43.612;1.572;2022-09-13T10:58:50;98334.31;;;25.35;55.46
67738;BME280;54534;43.612;1.572;2022-09-13T11:01:36;98319.81;;;25.36;55.08
67738;BME280;54534;43.612;1.572;2022-09-13T11:04:26;98313.44;;;25.37;55.48
67738;BME280;54534;43.612;1.572;2022-09-13T11:10:12;98302.66;;;25.37;55.20
67738;BME280;54534;43.612;1.572;2022-09-13T11:12:24;98307.22;;;25.36;54.93
67738;BME280;54534;43.612;1.572;2022-09-13T11:20:38;98291.91;;;25.37;55.37
67738;BME280;54534;43.612;1.572;2022-09-13T11:23:11;98300.81;;;25.37;55.40
67738;BME280;54534;43.612;1.572;2022-09-13T11:37:04;98288.00;;;25.39;55.44
67738;BME280;54534;43.612;1.572;2022-09-13T11:39:38;98302.28;;;25.40;55.22
67738;BME280;54534;43.612;1.572;2022-09-13T11:42:45;98298.56;;;25.41;55.14
67738;BME280;54534;43.612;1.572;2022-09-13T11:45:20;98285.09;;;25.41;55.01
67738;BME280;54534;43.612;1.572;2022-09-13T11:55:46;98283.06;;;25.43;55.12
67738;BME280;54534;43.612;1.572;2022-09-13T11:58:25;98285.56;;;25.44;55.48
67738;BME280;54534;43.612;1.572;2022-09-13T12:00:56;98297.34;;;25.43;55.41
67738;BME280;54534;43.612;1.572;2022-09-13T12:03:31;98302.72;;;25.43;55.40
67738;BME280;54534;43.612;1.572;2022-09-13T12:06:04;98295.28;;;25.46;55.61
67738;BME280;54534;43.612;1.572;2022-09-13T12:08:36;98307.72;;;25.47;55.56
67738;BME280;54534;43.612;1.572;2022-09-13T12:11:44;98297.81;;;25.47;55.13
67738;BME280;54534;43.612;1.572;2022-09-13T12:14:16;98295.13;;;25.47;55.56
67738;BME280;54534;43.612;1.572;2022-09-13T12:16:46;98305.03;;;25.47;55.45
67738;BME280;54534;43.612;1.572;2022-09-13T12:21:43;98304.84;;;25.48;55.05
67738;BME280;54534;43.612;1.572;2022-09-13T12:24:26;98311.06;;;25.49;55.02
67738;BME280;54534;43.612;1.572;2022-09-13T12:29:46;98310.03;;;25.50;55.32
67738;BME280;54534;43.612;1.572;2022-09-13T12:32:15;98299.28;;;25.50;55.00
67738;BME280;54534;43.612;1.572;2022-09-13T12:34:49;98299.28;;;25.50;55.09
67738;BME280;54534;43.612;1.572;2022-09-13T12:53:49;98282.75;;;25.53;55.01
67738;BME280;54534;43.612;1.572;2022-09-13T13:02:29;98260.38;;;25.52;55.41
67738;BME280;54534;43.612;1.572;2022-09-13T13:05:00;98260.38;;;25.52;55.09
67738;BME280;54534;43.612;1.572;2022-09-13T13:07:27;98256.66;;;25.53;55.12
67738;BME280;54534;43.612;1.572;2022-09-13T13:09:55;98257.69;;;25.52;55.27
67738;BME280;54534;43.612;1.572;2022-09-13T13:12:39;98255.63;;;25.54;55.13
67738;BME280;54534;43.612;1.572;2022-09-13T13:17:53;98257.50;;;25.54;54.83
67738;BME280;54534;43.612;1.572;2022-09-13T13:23:37;98272.78;;;25.53;54.93
67738;BME280;54534;43.612;1.572;2022-09-13T13:46:44;98255.44;;;25.56;55.13
67738;BME280;54534;43.612;1.572;2022-09-13T13:54:57;98230.19;;;25.57;54.70
67738;BME280;54534;43.612;1.572;2022-09-13T13:57:30;98222.13;;;25.57;54.89
67738;BME280;54534;43.612;1.572;2022-09-13T14:00:15;98216.75;;;25.57;54.82
67738;BME280;54534;43.612;1.572;2022-09-13T14:10:49;98222.97;;;25.58;54.78
67738;BME280;54534;43.612;1.572;2022-09-13T14:18:55;98231.03;;;25.58;55.11
67738;BME280;54534;43.612;1.572;2022-09-13T14:21:30;98225.66;;;25.58;55.16
67738;BME280;54534;43.612;1.572;2022-09-13T14:24:10;98218.41;;;25.58;55.02
67738;BME280;54534;43.612;1.572;2022-09-13T14:26:39;98199.56;;;25.58;54.82
67738;BME280;54534;43.612;1.572;2022-09-13T14:29:07;98205.75;;;25.59;54.67
67738;BME280;54534;43.612;1.572;2022-09-13T14:31:33;98218.41;;;25.58;54.71
67738;BME280;54534;43.612;1.572;2022-09-13T14:33:58;98211.97;;;25.59;54.79
67738;BME280;54534;43.612;1.572;2022-09-13T14:36:24;98212.81;;;25.60;54.81
67738;BME280;54534;43.612;1.572;2022-09-13T14:38:56;98216.34;;;25.60;54.81
67738;BME280;54534;43.612;1.572;2022-09-13T14:41:33;98209.94;;;25.61;55.06
67738;BME280;54534;43.612;1.572;2022-09-13T14:44:15;98200.00;;;25.62;54.68
67738;BME280;54534;43.612;1.572;2022-09-13T14:46:43;98196.28;;;25.63;54.77
67738;BME280;54534;43.612;1.572;2022-09-13T14:49:18;98201.84;;;25.61;55.07
67738;BME280;54534;43.612;1.572;2022-09-13T14:51:50;98192.13;;;25.60;54.72
67738;BME280;54534;43.612;1.572;2022-09-13T14:54:34;98189.22;;;25.62;54.86
67738;BME280;54534;43.612;1.572;2022-09-13T14:57:01;98185.69;;;25.61;54.88
67738;BME280;54534;43.612;1.572;2022-09-13T14:59:35;98182.84;;;25.63;54.74
67738;BME280;54534;43.612;1.572;2022-09-13T15:02:17;98186.38;;;25.63;54.57
67738;BME280;54534;43.612;1.572;2022-09-13T15:04:48;98175.78;;;25.62;55.02
67738;BME280;54534;43.612;1.572;2022-09-13T15:09:45;98180.97;;;25.63;54.63
67738;BME280;54534;43.612;1.572;2022-09-13T15:12:23;98180.97;;;25.63;54.52
67738;BME280;54534;43.612;1.572;2022-09-13T15:15:53;98177.25;;;25.64;54.89
67738;BME280;54534;43.612;1.572;2022-09-13T15:26:06;98203.31;;;25.64;54.92
67738;BME280;54534;43.612;1.572;2022-09-13T15:31:01;98218.66;;;25.63;54.98
67738;BME280;54534;43.612;1.572;2022-09-13T15:33:29;98214.94;;;25.64;54.59
67738;BME280;54534;43.612;1.572;2022-09-13T15:41:39;98214.94;;;25.64;55.11
67738;BME280;54534;43.612;1.572;2022-09-13T15:44:07;98209.38;;;25.66;55.07
67738;BME280;54534;43.612;1.572;2022-09-13T15:46:45;98206.66;;;25.66;54.71
67738;BME280;54534;43.612;1.572;2022-09-13T15:49:16;98204.81;;;25.66;55.12
67738;BME280;54534;43.612;1.572;2022-09-13T15:51:42;98191.34;;;25.66;54.88
67738;BME280;54534;43.612;1.572;2022-09-13T15:54:13;98186.78;;;25.67;54.92
67738;BME280;54534;43.612;1.572;2022-09-13T15:56:42;98180.59;;;25.66;54.77
67738;BME280;54534;43.612;1.572;2022-09-13T15:59:15;98183.28;;;25.66;55.02
67738;BME280;54534;43.612;1.572;2022-09-13T16:01:42;98188.66;;;25.66;54.88
67738;BME280;54534;43.612;1.572;2022-09-13T16:04:07;98192.16;;;25.67;54.68
67738;BME280;54534;43.612;1.572;2022-09-13T16:06:34;98181.41;;;25.67;54.78
67738;BME280;54534;43.612;1.572;2022-09-13T16:09:00;98191.16;;;25.68;54.91
67738;BME280;54534;43.612;1.572;2022-09-13T16:11:27;98195.69;;;25.68;54.90
67738;BME280;54534;43.612;1.572;2022-09-13T16:13:52;98188.47;;;25.68;54.70
67738;BME280;54534;43.612;1.572;2022-09-13T16:16:18;98193.00;;;25.68;55.09
67738;BME280;54534;43.612;1.572;2022-09-13T16:18:43;98202.75;;;25.69;54.78
67738;BME280;54534;43.612;1.572;2022-09-13T16:21:09;98201.91;;;25.68;54.60
67738;BME280;54534;43.612;1.572;2022-09-13T16:23:34;98205.44;;;25.69;55.10
67738;BME280;54534;43.612;1.572;2022-09-13T16:26:00;98206.28;;;25.69;54.59
67738;BME280;54534;43.612;1.572;2022-09-13T16:28:26;98202.75;;;25.69;54.77
67738;BME280;54534;43.612;1.572;2022-09-13T16:30:52;98200.06;;;25.69;54.69
67738;BME280;54534;43.612;1.572;2022-09-13T16:33:17;98201.91;;;25.68;54.89
67738;BME280;54534;43.612;1.572;2022-09-13T16:35:44;98199.03;;;25.70;55.04
67738;BME280;54534;43.612;1.572;2022-09-13T16:38:10;98196.31;;;25.70;54.79
67738;BME280;54534;43.612;1.572;2022-09-13T16:40:40;98195.53;;;25.69;55.00
67738;BME280;54534;43.612;1.572;2022-09-13T16:43:06;98198.00;;;25.71;54.85